Time;durP1;ratioP1;P1;durP2;ratioP2;P2;SDS_P1;SDS_P2;PMS_P1;PMS_P2;Temp;Humidity;BMP_temperature;BMP_pressure;BME280_temperature;BME280_humidity;BME280_pressure;Samples;Min_cycle;Max_cycle;Signal;HPM_P1;HPM_P2
2023/05/20 00:02:03;;;;;;;;;;;11.90;99.90;;;;;;4993390;28;19905;-79
2023/05/20 00:04:29;;;;;;;;;;;11.90;99.90;;;;;;4976047;28;19921;-78
2023/05/20 00:06:54;;;;;;;;;;;11.90;99.90;;;;;;4992892;28;19906;-78
2023/05/20 00:09:20;;;;;;;;;;;11.90;99.90;;;;;;4992800;28;19914;-79
2023/05/20 00:11:45;;;;;;;;;;;11.90;99.90;;;;;;4974990;28;19910;-78
2023/05/20 00:14:11;;;;;;;;;;;11.90;99.90;;;;;;4992732;28;20000;-79
2023/05/20 00:16:37;;;;;;;;;;;11.80;99.90;;;;;;4976635;28;19945;-78
2023/05/20 00:19:02;;;;;;;;;;;11.80;99.90;;;;;;4976630;28;19957;-78
2023/05/20 00:21:28;;;;;;;;;;;11.80;99.90;;;;;;4974704;28;20385;-78
2023/05/20 00:23:55;;;;;;;;;;;11.80;99.90;;;;;;4992351;28;19937;-79
2023/05/20 00:26:20;;;;;;;;;;;11.80;99.90;;;;;;4974741;28;19905;-79
2023/05/20 00:28:46;;;;;;;;;;;11.70;99.90;;;;;;4991935;28;20012;-79
2023/05/20 00:31:11;;;;;;;;;;;11.60;99.90;;;;;;4974829;28;20005;-79
2023/05/20 00:33:37;;;;;;;;;;;11.70;99.90;;;;;;4991812;28;19964;-79
2023/05/20 00:36:03;;;;;;;;;;;11.70;99.90;;;;;;4992566;28;19929;-78
2023/05/20 00:38:28;;;;;;;;;;;11.70;99.90;;;;;;4974433;28;19953;-79
2023/05/20 00:40:54;;;;;;;;;;;11.60;99.90;;;;;;4974275;28;20217;-78
2023/05/20 00:43:19;;;;;;;;;;;11.60;99.90;;;;;;4993105;28;20374;-78
2023/05/20 00:45:45;;;;;;;;;;;11.60;99.90;;;;;;4974816;28;19912;-78
2023/05/20 00:48:11;;;;;;;;;;;11.60;99.90;;;;;;4973952;28;19914;-79
2023/05/20 00:50:37;;;;;;;;;;;11.60;99.90;;;;;;4991660;28;19913;-79
2023/05/20 00:53:03;;;;;;;;;;;11.60;99.90;;;;;;4991061;28;20378;-78
2023/05/20 00:55:29;;;;;;;;;;;11.60;99.90;;;;;;4973706;28;19905;-78
2023/05/20 00:57:54;;;;;;;;;;;11.60;99.90;;;;;;4991323;28;20287;-78
2023/05/20 01:00:20;;;;;;;;;;;11.60;99.90;;;;;;4973746;28;20309;-79
2023/05/20 01:02:45;;;;;;;;;;;11.60;99.90;;;;;;4973893;28;19938;-79
2023/05/20 01:05:11;;;;;;;;;;;11.50;99.90;;;;;;4991025;28;19910;-79
2023/05/20 01:07:37;;;;;;;;;;;11.60;99.90;;;;;;4974025;28;19912;-79
2023/05/20 01:10:02;;;;;;;;;;;11.60;99.90;;;;;;4972616;28;19914;-79
2023/05/20 01:12:36;;;;;;;;;;;11.60;99.90;;;;;;4973239;28;20281;-79
2023/05/20 01:15:05;;;;;;;;;;;11.60;99.90;;;;;;4973374;28;19936;-78
2023/05/20 01:17:31;;;;;;;;;;;11.60;99.90;;;;;;4990911;28;19912;-79
2023/05/20 01:19:58;;;;;;;;;;;11.50;99.90;;;;;;4973646;28;20290;-79
2023/05/20 01:22:24;;;;;;;;;;;11.50;99.90;;;;;;4992158;28;19913;-78
2023/05/20 01:24:52;;;;;;;;;;;11.40;99.90;;;;;;4991901;28;19944;-78
2023/05/20 01:27:19;;;;;;;;;;;11.30;99.90;;;;;;4991487;28;19964;-78
2023/05/20 01:29:47;;;;;;;;;;;11.40;99.90;;;;;;4973547;28;19913;-78
2023/05/20 01:32:23;;;;;;;;;;;11.40;99.90;;;;;;4991465;28;19905;-78
2023/05/20 01:34:51;;;;;;;;;;;11.40;99.90;;;;;;4991496;28;20430;-79
2023/05/20 01:37:17;;;;;;;;;;;11.40;99.90;;;;;;4991762;28;20318;-79
2023/05/20 01:39:43;;;;;;;;;;;11.40;99.90;;;;;;4992104;28;20348;-78
2023/05/20 01:42:09;;;;;;;;;;;11.40;99.90;;;;;;4992189;28;20008;-79
2023/05/20 01:44:35;;;;;;;;;;;11.50;99.90;;;;;;4991378;28;19918;-78
2023/05/20 01:47:01;;;;;;;;;;;11.50;99.90;;;;;;4991876;28;19925;-78
2023/05/20 01:49:26;;;;;;;;;;;11.50;99.90;;;;;;4991212;28;19918;-79
2023/05/20 01:51:52;;;;;;;;;;;11.50;99.90;;;;;;4990663;28;19948;-78
2023/05/20 01:54:18;;;;;;;;;;;11.50;99.90;;;;;;4991155;28;19913;-78
2023/05/20 01:56:45;;;;;;;;;;;11.50;99.90;;;;;;4972733;28;20278;-78
2023/05/20 01:59:10;;;;;;;;;;;11.50;99.90;;;;;;4973353;28;20329;-78
2023/05/20 02:01:36;;;;;;;;;;;11.50;99.90;;;;;;4973187;28;20001;-78
2023/05/20 02:04:01;;;;;;;;;;;11.70;99.90;;;;;;4990941;28;19933;-78
2023/05/20 02:06:27;;;;;;;;;;;11.60;99.90;;;;;;4991104;28;19913;-78
2023/05/20 02:08:52;;;;;;;;;;;11.60;99.90;;;;;;4990028;28;19917;-78
2023/05/20 02:11:18;;;;;;;;;;;11.60;99.90;;;;;;4972534;28;20382;-79
2023/05/20 02:13:43;;;;;;;;;;;11.60;99.90;;;;;;4990476;28;19905;-78
2023/05/20 02:16:09;;;;;;;;;;;11.60;99.90;;;;;;4990732;28;20285;-79
2023/05/20 02:18:34;;;;;;;;;;;11.60;99.90;;;;;;4990786;28;20339;-78
2023/05/20 02:21:03;;;;;;;;;;;11.60;99.90;;;;;;4974769;28;19912;-78
2023/05/20 02:23:29;;;;;;;;;;;11.60;99.90;;;;;;4977421;28;20288;-78
2023/05/20 02:25:55;;;;;;;;;;;11.70;99.90;;;;;;4976102;28;20004;-78
2023/05/20 02:28:20;;;;;;;;;;;11.60;99.90;;;;;;4976524;28;19936;-78
2023/05/20 02:30:46;;;;;;;;;;;11.60;99.90;;;;;;4994059;28;19910;-78
2023/05/20 02:33:12;;;;;;;;;;;11.60;99.90;;;;;;4976855;28;19974;-78
2023/05/20 02:35:38;;;;;;;;;;;11.60;99.90;;;;;;4976844;28;19906;-78
2023/05/20 02:38:04;;;;;;;;;;;11.60;99.90;;;;;;4976455;28;20397;-79
2023/05/20 02:40:30;;;;;;;;;;;11.70;99.90;;;;;;4977351;28;19941;-78
2023/05/20 02:42:55;;;;;;;;;;;11.60;99.90;;;;;;4995004;28;19910;-79
2023/05/20 02:45:21;;;;;;;;;;;11.70;99.90;;;;;;4977387;28;19913;-78
2023/05/20 02:47:46;;;;;;;;;;;11.70;99.90;;;;;;4977315;28;19906;-78
2023/05/20 02:50:12;;;;;;;;;;;11.70;99.90;;;;;;4995298;28;20081;-78
2023/05/20 02:52:38;;;;;;;;;;;11.60;99.90;;;;;;4995259;28;20361;-78
2023/05/20 02:55:05;;;;;;;;;;;11.60;99.90;;;;;;4977972;28;19913;-77
2023/05/20 02:57:31;;;;;;;;;;;11.70;99.90;;;;;;4993993;28;19913;-78
2023/05/20 02:59:57;;;;;;;;;;;11.60;99.90;;;;;;4976730;28;19906;-78
2023/05/20 03:02:23;;;;;;;;;;;11.60;99.90;;;;;;4994355;28;20294;-78
2023/05/20 03:04:49;;;;;;;;;;;11.60;99.90;;;;;;4975794;28;19928;-78
2023/05/20 03:07:18;;;;;;;;;;;11.70;99.90;;;;;;4992725;28;20324;-78
2023/05/20 03:09:43;;;;;;;;;;;11.60;99.90;;;;;;4993549;28;19945;-78
2023/05/20 03:12:09;;;;;;;;;;;11.60;99.90;;;;;;4992962;28;19952;-78
2023/05/20 03:14:34;;;;;;;;;;;11.70;99.90;;;;;;4993609;28;19905;-78
2023/05/20 03:17:00;;;;;;;;;;;11.70;99.90;;;;;;4976395;28;20084;-78
2023/05/20 03:19:25;;;;;;;;;;;11.60;99.90;;;;;;4993908;28;19976;-78
2023/05/20 03:21:51;;;;;;;;;;;11.70;99.90;;;;;;4993809;28;20317;-78
2023/05/20 03:24:17;;;;;;;;;;;11.60;99.90;;;;;;4975982;28;20309;-78
2023/05/20 03:26:42;;;;;;;;;;;11.60;99.90;;;;;;4993118;28;19917;-78
2023/05/20 03:29:11;;;;;;;;;;;11.60;99.90;;;;;;4975451;28;19921;-78
2023/05/20 03:31:37;;;;;;;;;;;11.70;99.90;;;;;;4976562;28;20321;-78
2023/05/20 03:34:02;;;;;;;;;;;11.50;99.90;;;;;;4992640;28;19909;-79
2023/05/20 03:36:28;;;;;;;;;;;11.60;99.90;;;;;;4975522;28;20389;-78
2023/05/20 03:38:53;;;;;;;;;;;11.50;99.90;;;;;;4993149;28;19914;-78
2023/05/20 03:41:19;;;;;;;;;;;11.50;99.90;;;;;;4975378;28;19905;-78
2023/05/20 03:43:44;;;;;;;;;;;11.50;99.90;;;;;;4992477;28;19925;-79
2023/05/20 03:46:10;;;;;;;;;;;11.50;99.90;;;;;;4976093;28;20055;-79
2023/05/20 03:48:35;;;;;;;;;;;11.40;99.90;;;;;;4975684;28;19917;-79
2023/05/20 03:51:01;;;;;;;;;;;11.50;99.90;;;;;;4976158;28;20412;-78
2023/05/20 03:53:26;;;;;;;;;;;11.50;99.90;;;;;;4976173;28;19914;-78
2023/05/20 03:55:52;;;;;;;;;;;11.50;99.90;;;;;;4992954;28;19909;-78
2023/05/20 03:58:19;;;;;;;;;;;11.60;99.90;;;;;;4975026;28;20013;-79
2023/05/20 04:00:45;;;;;;;;;;;11.60;99.90;;;;;;4992787;28;20080;-79
2023/05/20 04:03:11;;;;;;;;;;;11.60;99.90;;;;;;4993665;28;20334;-78
2023/05/20 04:05:36;;;;;;;;;;;11.60;99.90;;;;;;4993500;28;20033;-78
2023/05/20 04:08:03;;;;;;;;;;;11.60;99.90;;;;;;4993342;28;19916;-78
2023/05/20 04:10:30;;;;;;;;;;;11.50;99.90;;;;;;4992634;28;19910;-78
2023/05/20 04:12:57;;;;;;;;;;;11.50;99.90;;;;;;4975312;28;20358;-78
2023/05/20 04:15:22;;;;;;;;;;;11.50;99.90;;;;;;4992639;28;20285;-78
2023/05/20 04:17:49;;;;;;;;;;;11.50;99.90;;;;;;4974918;28;19909;-78
2023/05/20 04:20:14;;;;;;;;;;;11.60;99.90;;;;;;4992136;28;19910;-78
2023/05/20 04:22:40;;;;;;;;;;;11.60;99.90;;;;;;4974495;28;19905;-78
2023/05/20 04:25:06;;;;;;;;;;;11.60;99.90;;;;;;4975148;28;19912;-79
2023/05/20 04:27:36;;;;;;;;;;;11.60;99.90;;;;;;4993365;28;19913;-77
2023/05/20 04:30:02;;;;;;;;;;;11.50;99.90;;;;;;4975361;28;19918;-78
2023/05/20 04:32:29;;;;;;;;;;;11.60;99.90;;;;;;4974534;28;20301;-77
2023/05/20 04:34:58;;;;;;;;;;;11.60;99.90;;;;;;4975212;28;19913;-79
2023/05/20 04:37:25;;;;;;;;;;;11.70;99.90;;;;;;4975143;28;19910;-79
2023/05/20 04:39:51;;;;;;;;;;;11.70;99.90;;;;;;4992975;28;19913;-78
2023/05/20 04:42:17;;;;;;;;;;;11.80;99.90;;;;;;4992907;28;19906;-78
2023/05/20 04:44:44;;;;;;;;;;;12.00;99.90;;;;;;4974673;28;19917;-78
2023/05/20 04:47:10;;;;;;;;;;;12.10;99.90;;;;;;4992713;28;19916;-78
2023/05/20 04:49:37;;;;;;;;;;;12.30;99.90;;;;;;4991896;28;19913;-79
2023/05/20 04:52:03;;;;;;;;;;;12.30;99.90;;;;;;4992031;28;19906;-79
2023/05/20 04:54:29;;;;;;;;;;;12.40;99.90;;;;;;4992331;28;19914;-79
2023/05/20 04:56:55;;;;;;;;;;;12.40;99.90;;;;;;4973929;28;19906;-78
2023/05/20 04:59:21;;;;;;;;;;;12.40;99.90;;;;;;4974215;28;20385;-78
2023/05/20 05:01:46;;;;;;;;;;;12.40;99.90;;;;;;4973822;28;20522;-79
2023/05/20 05:04:12;;;;;;;;;;;12.40;99.90;;;;;;4991587;28;19913;-78
2023/05/20 05:06:37;;;;;;;;;;;12.40;99.90;;;;;;4991273;28;20361;-79
2023/05/20 05:09:03;;;;;;;;;;;12.40;99.90;;;;;;4980737;28;19921;-78
2023/05/20 05:11:29;;;;;;;;;;;12.20;99.90;;;;;;4984896;28;20184;-79
2023/05/20 05:13:55;;;;;;;;;;;12.30;99.90;;;;;;5002238;28;19929;-79
2023/05/20 05:16:23;;;;;;;;;;;12.30;99.90;;;;;;4985598;28;19952;-78
2023/05/20 05:18:49;;;;;;;;;;;12.20;99.90;;;;;;5003002;28;19909;-78
2023/05/20 05:21:15;;;;;;;;;;;12.20;99.90;;;;;;5002954;28;19906;-78
2023/05/20 05:23:41;;;;;;;;;;;12.10;99.90;;;;;;4985483;28;19948;-79
2023/05/20 05:26:06;;;;;;;;;;;12.10;99.90;;;;;;5001248;28;20079;-78
2023/05/20 05:28:32;;;;;;;;;;;12.10;99.90;;;;;;4985063;28;19918;-77
2023/05/20 05:30:57;;;;;;;;;;;11.90;99.90;;;;;;4987741;28;20171;-79
2023/05/20 05:33:23;;;;;;;;;;;12.00;99.90;;;;;;4986851;28;19972;-79
2023/05/20 05:35:49;;;;;;;;;;;12.00;99.90;;;;;;4983054;28;19973;-79
2023/05/20 05:38:15;;;;;;;;;;;11.90;99.90;;;;;;4998964;28;20213;-78
2023/05/20 05:40:40;;;;;;;;;;;11.90;99.90;;;;;;4981604;28;19902;-78
2023/05/20 05:43:06;;;;;;;;;;;11.90;99.90;;;;;;5000671;28;19917;-78
2023/05/20 05:45:31;;;;;;;;;;;12.00;99.90;;;;;;4981706;28;19906;-76
2023/05/20 05:47:57;;;;;;;;;;;12.10;99.90;;;;;;4997559;28;19916;-76
2023/05/20 05:50:23;;;;;;;;;;;12.10;99.90;;;;;;4998598;28;19968;-76
2023/05/20 05:52:48;;;;;;;;;;;12.20;99.90;;;;;;4980518;28;19920;-78
2023/05/20 05:55:14;;;;;;;;;;;10.10;99.90;;;;;;4981557;28;20201;-79
2023/05/20 05:57:40;;;;;;;;;;;12.40;99.90;;;;;;4984474;28;19909;-79
2023/05/20 06:00:05;;;;;;;;;;;12.50;99.90;;;;;;5002362;28;19902;-78
2023/05/20 06:02:34;;;;;;;;;;;12.50;99.90;;;;;;5002297;28;20012;-77
2023/05/20 06:05:03;;;;;;;;;;;12.60;99.90;;;;;;4999667;28;20016;-78
2023/05/20 06:07:29;;;;;;;;;;;12.70;99.90;;;;;;4997550;28;20026;-78
2023/05/20 06:09:54;;;;;;;;;;;12.70;99.90;;;;;;4997083;28;20421;-77
2023/05/20 06:12:20;;;;;;;;;;;12.60;99.90;;;;;;4975856;28;20263;-80
2023/05/20 06:14:46;;;;;;;;;;;12.60;99.90;;;;;;4975770;28;19910;-79
2023/05/20 06:17:12;;;;;;;;;;;12.60;99.90;;;;;;4993232;28;20005;-78
2023/05/20 06:19:37;;;;;;;;;;;12.50;99.90;;;;;;4975308;28;20342;-77
2023/05/20 06:22:03;;;;;;;;;;;12.50;99.90;;;;;;4993156;28;20819;-77
2023/05/20 06:24:28;;;;;;;;;;;12.60;99.90;;;;;;4992018;28;19952;-76
2023/05/20 06:26:54;;;;;;;;;;;12.60;99.90;;;;;;4990674;28;19997;-76
2023/05/20 06:29:19;;;;;;;;;;;12.70;99.90;;;;;;4973075;28;20028;-78
2023/05/20 06:31:45;;;;;;;;;;;12.80;99.90;;;;;;4995366;28;20306;-78
2023/05/20 06:34:10;;;;;;;;;;;12.70;99.90;;;;;;4995317;28;19910;-80
2023/05/20 06:36:36;;;;;;;;;;;12.70;99.90;;;;;;5004896;28;19945;-78
2023/05/20 06:39:02;;;;;;;;;;;12.70;99.90;;;;;;5002450;28;19906;-79
2023/05/20 06:41:28;;;;;;;;;;;12.80;99.90;;;;;;5002212;28;19916;-79
2023/05/20 06:43:53;;;;;;;;;;;12.90;99.90;;;;;;5002094;28;19913;-78
2023/05/20 06:46:19;;;;;;;;;;;13.00;99.90;;;;;;4999494;28;19902;-77
2023/05/20 06:48:44;;;;;;;;;;;12.90;99.90;;;;;;4976166;28;20161;-79
2023/05/20 06:51:10;;;;;;;;;;;13.00;99.90;;;;;;4995768;28;20358;-76
2023/05/20 06:53:37;;;;;;;;;;;13.10;99.90;;;;;;4982247;28;19909;-76
2023/05/20 06:56:02;;;;;;;;;;;13.20;99.90;;;;;;4994454;28;19909;-78
2023/05/20 06:58:28;;;;;;;;;;;13.30;99.90;;;;;;4988435;28;19933;-77
2023/05/20 07:00:53;;;;;;;;;;;14.10;99.90;;;;;;4994758;28;19913;-77
2023/05/20 07:03:19;;;;;;;;;;;13.60;99.90;;;;;;4981586;28;19964;-77
2023/05/20 07:05:44;;;;;;;;;;;13.90;99.90;;;;;;5005681;28;19969;-78
2023/05/20 07:08:10;;;;;;;;;;;14.10;99.90;;;;;;4999415;28;20814;-77
2023/05/20 07:10:36;;;;;;;;;;;14.30;99.90;;;;;;5000503;28;19901;-79
2023/05/20 07:13:01;;;;;;;;;;;14.50;99.90;;;;;;5001886;28;20401;-77
2023/05/20 07:15:27;;;;;;;;;;;14.40;99.90;;;;;;4991079;28;19913;-77
2023/05/20 07:17:52;;;;;;;;;;;14.30;99.90;;;;;;4980011;28;19909;-78
2023/05/20 07:20:18;;;;;;;;;;;14.10;99.90;;;;;;4995210;28;19948;-77
2023/05/20 07:22:44;;;;;;;;;;;14.20;99.90;;;;;;4992498;28;20026;-78
2023/05/20 07:25:09;;;;;;;;;;;14.20;99.90;;;;;;4976989;28;19945;-78
2023/05/20 07:27:35;;;;;;;;;;;14.30;99.90;;;;;;5002355;28;19909;-78
2023/05/20 07:30:01;;;;;;;;;;;14.40;99.90;;;;;;5000914;28;20008;-77
2023/05/20 07:32:26;;;;;;;;;;;14.40;99.90;;;;;;4982869;28;19909;-78
2023/05/20 07:34:52;;;;;;;;;;;14.40;99.90;;;;;;4982705;28;19912;-77
2023/05/20 07:37:17;;;;;;;;;;;16.00;99.90;;;;;;5001328;28;20217;-77
2023/05/20 07:39:43;;;;;;;;;;;14.10;99.90;;;;;;4983476;28;19909;-76
2023/05/20 07:42:08;;;;;;;;;;;14.00;99.90;;;;;;5001866;28;19906;-78
2023/05/20 07:44:34;;;;;;;;;;;13.90;99.90;;;;;;5007689;28;19976;-78
2023/05/20 07:47:00;;;;;;;;;;;14.00;99.90;;;;;;4985358;28;19977;-79
2023/05/20 07:49:25;;;;;;;;;;;13.80;99.90;;;;;;4983417;28;20273;-77
2023/05/20 07:51:51;;;;;;;;;;;13.90;99.90;;;;;;4998551;28;19909;-78
2023/05/20 07:54:17;;;;;;;;;;;13.90;99.90;;;;;;5004054;28;19917;-78
2023/05/20 07:56:42;;;;;;;;;;;14.00;99.90;;;;;;4976798;28;20149;-78
2023/05/20 07:59:08;;;;;;;;;;;14.30;99.90;;;;;;4983313;28;19909;-79
2023/05/20 08:01:33;;;;;;;;;;;14.10;99.90;;;;;;4981613;28;19996;-79
2023/05/20 08:03:59;;;;;;;;;;;14.30;99.90;;;;;;4981818;28;20105;-78
2023/05/20 08:06:25;;;;;;;;;;;14.50;99.90;;;;;;5000818;28;19901;-78
2023/05/20 08:08:52;;;;;;;;;;;14.70;99.90;;;;;;4984634;28;19916;-77
2023/05/20 08:11:18;;;;;;;;;;;14.00;99.90;;;;;;4998928;28;20093;-78
2023/05/20 08:13:43;;;;;;;;;;;15.10;99.90;;;;;;4983675;28;19902;-77
2023/05/20 08:16:09;;;;;;;;;;;15.20;99.90;;;;;;4978839;28;20245;-80
2023/05/20 08:18:37;;;;;;;;;;;15.00;99.90;;;;;;4973714;28;19913;-79
2023/05/20 08:21:04;;;;;;;;;;;15.10;99.90;;;;;;4972585;28;19964;-80
2023/05/20 08:23:30;;;;;;;;;;;15.00;99.90;;;;;;4972931;28;20327;-79
2023/05/20 08:25:56;;;;;;;;;;;15.00;99.90;;;;;;4972645;28;19956;-79
2023/05/20 08:28:21;;;;;;;;;;;15.00;99.90;;;;;;4993217;28;19909;-78
2023/05/20 08:30:47;;;;;;;;;;;14.90;99.90;;;;;;4998264;28;20154;-77
2023/05/20 08:33:13;;;;;;;;;;;15.00;99.90;;;;;;4998740;28;19944;-79
2023/05/20 08:35:39;;;;;;;;;;;15.20;99.90;;;;;;4998788;28;19992;-78
2023/05/20 08:38:05;;;;;;;;;;;15.30;99.90;;;;;;4994586;28;19902;-78
2023/05/20 08:40:33;;;;;;;;;;;15.50;99.90;;;;;;5000447;28;19901;-78
2023/05/20 08:43:00;;;;;;;;;;;15.50;99.90;;;;;;4979801;28;20293;-78
2023/05/20 08:45:27;;;;;;;;;;;15.60;99.90;;;;;;4996004;28;20239;-78
2023/05/20 08:47:53;;;;;;;;;;;15.70;99.90;;;;;;5000718;28;19901;-78
2023/05/20 08:50:18;;;;;;;;;;;15.70;99.90;;;;;;4977360;28;19984;-78
2023/05/20 08:52:45;;;;;;;;;;;15.80;99.90;;;;;;4953664;28;19965;-78
2023/05/20 08:55:13;;;;;;;;;;;15.70;99.90;;;;;;4970579;28;20275;-78
2023/05/20 08:57:40;;;;;;;;;;;15.80;99.90;;;;;;4971704;28;20032;-77
2023/05/20 09:00:12;;;;;;;;;;;15.60;99.90;;;;;;4972509;28;19993;-78
2023/05/20 09:02:39;;;;;;;;;;;15.60;99.90;;;;;;4972032;28;19922;-77
2023/05/20 09:05:04;;;;;;;;;;;15.70;99.90;;;;;;4954018;28;19957;-77
2023/05/20 09:07:30;;;;;;;;;;;15.90;99.90;;;;;;4953534;28;19996;-76
2023/05/20 09:09:56;;;;;;;;;;;16.10;99.90;;;;;;4953151;28;20738;-77
2023/05/20 09:12:21;;;;;;;;;;;16.00;99.90;;;;;;4971489;28;19911;-77
2023/05/20 09:14:47;;;;;;;;;;;15.40;99.90;;;;;;4953335;28;19906;-77
2023/05/20 09:17:12;;;;;;;;;;;15.50;99.90;;;;;;4953714;28;20209;-77
2023/05/20 09:19:38;;;;;;;;;;;15.80;99.90;;;;;;4953010;28;19906;-79
2023/05/20 09:22:04;;;;;;;;;;;16.70;99.90;;;;;;4953349;28;19964;-78
2023/05/20 09:24:29;;;;;;;;;;;17.20;99.90;;;;;;4970264;28;19906;-77
2023/05/20 09:26:56;;;;;;;;;;;17.50;99.90;;;;;;4970689;28;19906;-77
2023/05/20 09:29:22;;;;;;;;;;;17.80;99.30;;;;;;4953288;28;19918;-78
2023/05/20 09:31:48;;;;;;;;;;;17.60;99.60;;;;;;4972725;28;19906;-78
2023/05/20 09:34:13;;;;;;;;;;;17.70;99.90;;;;;;4957461;28;19906;-78
2023/05/20 09:36:41;;;;;;;;;;;17.60;99.90;;;;;;4957170;28;19961;-77
2023/05/20 09:39:08;;;;;;;;;;;17.50;98.30;;;;;;4977176;28;19910;-78
2023/05/20 09:41:55;;;;;;;;;;;17.50;96.90;;;;;;4983932;28;19906;-77
2023/05/20 09:44:21;;;;;;;;;;;17.90;94.60;;;;;;4966812;28;19953;-78
2023/05/20 09:46:48;;;;;;;;;;;18.00;92.60;;;;;;4967775;28;20190;-78
2023/05/20 09:49:15;;;;;;;;;;;18.40;93.40;;;;;;4992186;28;19921;-78
2023/05/20 09:51:40;;;;;;;;;;;18.90;90.40;;;;;;4983664;28;19948;-78
2023/05/20 09:54:07;;;;;;;;;;;19.30;90.00;;;;;;4976062;28;19941;-80
2023/05/20 09:56:33;;;;;;;;;;;20.00;83.60;;;;;;4992161;28;19909;-81
2023/05/20 09:59:00;;;;;;;;;;;20.50;79.70;;;;;;4994431;28;19906;-76
2023/05/20 10:01:25;;;;;;;;;;;20.00;78.80;;;;;;4976796;28;19913;-80
2023/05/20 10:03:51;;;;;;;;;;;19.40;81.50;;;;;;4981032;28;19906;-78
2023/05/20 10:06:20;;;;;;;;;;;19.40;82.80;;;;;;4995758;28;19905;-79
2023/05/20 10:08:48;;;;;;;;;;;19.60;81.20;;;;;;4994077;28;19914;-78
2023/05/20 10:11:26;;;;;;;;;;;20.30;80.10;;;;;;4993419;28;20010;-78
2023/05/20 10:13:54;;;;;;;;;;;21.10;78.50;;;;;;4996207;28;19958;-79
2023/05/20 10:16:38;;;;;;;;;;;21.30;74.70;;;;;;4975262;28;19906;-78
2023/05/20 10:19:16;;;;;;;;;;;20.80;75.00;;;;;;4991518;28;19920;-79
2023/05/20 10:21:41;;;;;;;;;;;20.50;75.80;;;;;;4992684;28;19906;-78
2023/05/20 10:24:08;;;;;;;;;;;20.10;77.50;;;;;;4991767;28;19912;-78
2023/05/20 10:26:37;;;;;;;;;;;20.20;78.10;;;;;;4974000;28;19913;-78
2023/05/20 10:29:15;;;;;;;;;;;20.60;76.90;;;;;;4992104;28;19913;-78
2023/05/20 10:31:47;;;;;;;;;;;20.50;77.50;;;;;;4992550;28;19906;-78
2023/05/20 10:34:16;;;;;;;;;;;19.90;78.10;;;;;;4992473;28;19912;-78
2023/05/20 10:36:46;;;;;;;;;;;20.10;78.50;;;;;;4992830;28;20140;-78
2023/05/20 10:39:16;;;;;;;;;;;20.20;79.50;;;;;;4993802;28;19906;-77
2023/05/20 10:41:41;;;;;;;;;;;20.00;78.80;;;;;;4994279;28;19953;-79
2023/05/20 10:44:07;;;;;;;;;;;19.70;81.70;;;;;;4996035;28;19953;-79
2023/05/20 10:46:33;;;;;;;;;;;20.40;80.70;;;;;;4976481;28;19910;-80
2023/05/20 10:49:02;;;;;;;;;;;21.30;76.30;;;;;;4975552;28;19921;-79
2023/05/20 10:51:28;;;;;;;;;;;21.90;76.80;;;;;;4994479;28;19956;-78
2023/05/20 10:53:54;;;;;;;;;;;21.50;75.30;;;;;;4994720;28;20008;-78
2023/05/20 10:56:21;;;;;;;;;;;21.60;74.90;;;;;;4996514;28;19906;-80
2023/05/20 10:58:47;;;;;;;;;;;21.80;79.00;;;;;;4995732;28;20355;-80
2023/05/20 11:01:14;;;;;;;;;;;21.60;75.20;;;;;;4993376;28;19906;-80
2023/05/20 11:03:40;;;;;;;;;;;22.10;75.30;;;;;;4975224;28;20020;-79
2023/05/20 11:06:12;;;;;;;;;;;22.60;72.50;;;;;;4975117;28;19906;-79
2023/05/20 11:08:38;;;;;;;;;;;23.90;73.20;;;;;;4993024;28;20145;-78
2023/05/20 11:11:04;;;;;;;;;;;24.60;64.50;;;;;;4975051;28;20187;-78
2023/05/20 11:13:29;;;;;;;;;;;25.50;61.70;;;;;;4993240;28;19912;-78
2023/05/20 11:15:55;;;;;;;;;;;25.20;61.10;;;;;;4975437;28;19913;-79
2023/05/20 11:18:21;;;;;;;;;;;25.00;60.80;;;;;;4975182;28;19927;-79
2023/05/20 11:20:46;;;;;;;;;;;25.40;62.20;;;;;;4992580;28;20286;-79
2023/05/20 11:23:13;;;;;;;;;;;25.40;61.40;;;;;;4992650;28;19917;-78
2023/05/20 11:25:38;;;;;;;;;;;25.10;62.10;;;;;;4992215;28;19917;-78
2023/05/20 11:28:07;;;;;;;;;;;24.80;63.20;;;;;;4992967;28;19909;-79
2023/05/20 11:30:32;;;;;;;;;;;23.70;64.80;;;;;;4992731;28;19914;-78
2023/05/20 11:32:59;;;;;;;;;;;22.70;68.90;;;;;;4974947;28;19909;-78
2023/05/20 11:35:25;;;;;;;;;;;22.20;68.10;;;;;;4993046;28;19953;-78
2023/05/20 11:37:55;;;;;;;;;;;20.90;69.80;;;;;;4975913;28;19917;-78
2023/05/20 11:40:25;;;;;;;;;;;20.40;73.40;;;;;;4993062;28;20000;-78
2023/05/20 11:42:55;;;;;;;;;;;20.30;75.50;;;;;;4974612;28;20388;-78
2023/05/20 11:45:20;;;;;;;;;;;20.60;75.20;;;;;;4992075;28;19913;-78
2023/05/20 11:47:46;;;;;;;;;;;20.90;76.40;;;;;;4974426;28;19909;-78
2023/05/20 11:50:18;;;;;;;;;;;21.00;72.00;;;;;;4974618;28;19995;-77
2023/05/20 11:52:44;;;;;;;;;;;21.00;74.60;;;;;;4974965;28;19921;-78
2023/05/20 11:55:10;;;;;;;;;;;20.70;72.90;;;;;;4991187;28;19917;-78
2023/05/20 11:57:37;;;;;;;;;;;20.80;73.70;;;;;;4975176;28;20007;-78
2023/05/20 12:00:05;;;;;;;;;;;20.60;73.70;;;;;;4966116;28;19925;-78
2023/05/20 12:02:31;;;;;;;;;;;20.70;75.20;;;;;;4973511;28;19909;-78
2023/05/20 12:04:57;;;;;;;;;;;21.30;74.60;;;;;;4973903;28;19937;-78
2023/05/20 12:07:22;;;;;;;;;;;22.40;72.40;;;;;;4974188;28;20313;-78
2023/05/20 12:09:48;;;;;;;;;;;23.20;69.90;;;;;;4990973;28;19980;-77
2023/05/20 12:12:13;;;;;;;;;;;23.70;67.90;;;;;;4973884;28;19993;-78
2023/05/20 12:14:39;;;;;;;;;;;24.90;65.00;;;;;;4973743;28;19913;-78
2023/05/20 12:17:04;;;;;;;;;;;25.60;62.10;;;;;;4970748;28;19906;-79
2023/05/20 12:19:30;;;;;;;;;;;25.90;61.70;;;;;;4990381;28;19968;-78
2023/05/20 12:21:55;;;;;;;;;;;25.30;63.10;;;;;;4973047;28;19906;-78
2023/05/20 12:24:20;;;;;;;;;;;24.90;64.90;;;;;;4991416;28;20393;-78
2023/05/20 12:26:46;;;;;;;;;;;24.20;66.80;;;;;;4991555;28;19909;-77
2023/05/20 12:29:12;;;;;;;;;;;23.10;68.10;;;;;;4991723;28;20175;-78
2023/05/20 12:31:37;;;;;;;;;;;21.90;70.80;;;;;;4991273;28;20310;-78
2023/05/20 12:34:03;;;;;;;;;;;21.50;72.50;;;;;;4990170;28;19906;-78
2023/05/20 12:36:28;;;;;;;;;;;22.00;72.50;;;;;;4990410;28;19905;-78
2023/05/20 12:38:54;;;;;;;;;;;22.30;75.50;;;;;;4990178;28;19906;-79
2023/05/20 12:41:20;;;;;;;;;;;22.80;73.30;;;;;;4989523;28;19906;-78
2023/05/20 12:43:46;;;;;;;;;;;23.30;70.60;;;;;;4989814;28;19927;-78
2023/05/20 12:46:11;;;;;;;;;;;23.40;72.30;;;;;;4990200;28;19988;-78
2023/05/20 12:48:37;;;;;;;;;;;23.10;71.50;;;;;;4989562;28;19984;-78
2023/05/20 12:51:02;;;;;;;;;;;22.90;70.40;;;;;;4987961;28;19917;-78
2023/05/20 12:53:28;;;;;;;;;;;22.00;67.90;;;;;;4990508;28;19921;-78
2023/05/20 12:55:53;;;;;;;;;;;21.20;71.40;;;;;;4990609;28;20322;-78
2023/05/20 12:58:19;;;;;;;;;;;20.70;73.40;;;;;;4990916;28;19917;-79
2023/05/20 13:00:44;;;;;;;;;;;20.00;75.20;;;;;;4989585;28;19906;-79
2023/05/20 13:03:10;;;;;;;;;;;20.10;76.60;;;;;;4974196;28;20283;-78
2023/05/20 13:05:35;;;;;;;;;;;20.10;76.10;;;;;;4973198;28;20371;-78
2023/05/20 13:08:01;;;;;;;;;;;20.50;77.00;;;;;;4991116;28;19941;-77
2023/05/20 13:10:27;;;;;;;;;;;20.50;76.50;;;;;;4990797;28;20004;-78
2023/05/20 13:12:52;;;;;;;;;;;20.60;75.40;;;;;;4973898;28;19995;-78
2023/05/20 13:15:18;;;;;;;;;;;20.60;76.90;;;;;;4991293;28;20384;-79
2023/05/20 13:17:43;;;;;;;;;;;20.70;77.30;;;;;;4973576;28;19910;-79
2023/05/20 13:20:09;;;;;;;;;;;21.00;76.70;;;;;;4990666;28;19905;-78
2023/05/20 13:22:35;;;;;;;;;;;21.20;74.50;;;;;;4972751;28;19913;-78
2023/05/20 13:25:01;;;;;;;;;;;21.40;72.20;;;;;;4972600;28;19906;-79
2023/05/20 13:27:26;;;;;;;;;;;21.50;71.90;;;;;;4989822;28;19910;-78
2023/05/20 13:29:52;;;;;;;;;;;21.20;73.50;;;;;;4972740;28;19914;-78
2023/05/20 13:32:18;;;;;;;;;;;20.40;74.50;;;;;;4990320;28;20147;-78
2023/05/20 13:34:43;;;;;;;;;;;20.40;74.80;;;;;;4990122;28;19996;-78
2023/05/20 13:37:09;;;;;;;;;;;20.60;74.00;;;;;;4973142;28;19955;-78
2023/05/20 13:39:35;;;;;;;;;;;20.70;75.00;;;;;;4972371;28;19909;-79
2023/05/20 13:42:00;;;;;;;;;;;21.00;76.10;;;;;;4990211;28;19910;-78
2023/05/20 13:44:26;;;;;;;;;;;21.30;75.30;;;;;;4972954;28;19949;-78
2023/05/20 13:46:51;;;;;;;;;;;21.40;75.20;;;;;;4990585;28;19941;-77
2023/05/20 13:49:17;;;;;;;;;;;20.90;75.00;;;;;;4991044;28;20286;-78
2023/05/20 13:51:42;;;;;;;;;;;20.70;73.90;;;;;;4991045;28;20221;-78
2023/05/20 13:54:08;;;;;;;;;;;20.60;74.80;;;;;;4973298;28;20377;-78
2023/05/20 13:56:34;;;;;;;;;;;20.70;77.40;;;;;;4972594;28;19906;-78
2023/05/20 13:58:59;;;;;;;;;;;20.80;74.70;;;;;;4972877;28;20000;-78
2023/05/20 14:01:26;;;;;;;;;;;20.80;75.20;;;;;;4972636;28;19906;-78
2023/05/20 14:03:52;;;;;;;;;;;20.80;79.00;;;;;;4972801;28;20048;-79
2023/05/20 14:06:17;;;;;;;;;;;20.80;75.20;;;;;;4972621;28;20000;-78
2023/05/20 14:08:44;;;;;;;;;;;20.70;74.80;;;;;;4989911;28;19967;-79
2023/05/20 14:11:09;;;;;;;;;;;20.70;77.60;;;;;;4989674;28;19921;-78